This is the latest recevied weather packets stored in our database for station/object SAVIL. If no packets are shown the sender has not sent any weather packets the latest 10 day(s).
| Time | Temp. | Humidity | Pressure | Rain* | Wind** | Luminosity | Snow |
|---|---|---|---|---|---|---|---|
| 1777745220 | 15° C | 44% | 1002.9 hPa | 0 mm | - | - | - |
| 1777744020 | 15° C | 43% | 1002.8 hPa | 0 mm | - | - | - |
| 1777742820 | 15° C | 42% | 1002.5 hPa | 0 mm | - | - | - |
| 1777741620 | 15.56° C | 41% | 1002.5 hPa | 0 mm | - | - | - |
| 1777740420 | 15.56° C | 41% | 1002.5 hPa | 0 mm | - | - | - |
| 1777739220 | 16.67° C | 41% | 1002.4 hPa | 0 mm | - | - | - |
| 1777738020 | 16.67° C | 41% | 1002.3 hPa | 0 mm | - | - | - |
| 1777736820 | 17.22° C | 40% | 1002.4 hPa | 0 mm | - | - | - |
| 1777735620 | 18.33° C | 34% | 1002.2 hPa | 0 mm | - | - | - |
| 1777734420 | 20.56° C | 26% | 1001.7 hPa | 0 mm | - | - | - |
| 1777733220 | 20.56° C | 26% | 1001.8 hPa | 0 mm | - | - | - |
| 1777732019 | 20.56° C | 26% | 1001.9 hPa | 0 mm | - | - | - |
| 1777729619 | 21.67° C | 27% | 1002 hPa | 0 mm | - | - | - |
| 1777728420 | 20.56° C | 30% | 1002.2 hPa | 0 mm | - | - | - |
| 1777727219 | 21.11° C | 30% | 1002.2 hPa | 0 mm | - | - | - |
| 1777726019 | 20.56° C | 29% | 1002.6 hPa | 0 mm | - | - | - |
| 1777724819 | 21.67° C | 27% | 1002.6 hPa | 0 mm | - | - | - |
| 1777723619 | 21.11° C | 29% | 1002.8 hPa | 0 mm | - | - | - |
| 1777722419 | 21.11° C | 28% | 1003 hPa | 0 mm | - | - | - |
| 1777721219 | 21.11° C | 29% | 1003.2 hPa | 0 mm | - | - | - |
| 1777720019 | 20.56° C | 31% | 1003.4 hPa | 0 mm | - | - | - |
| 1777718819 | 20° C | 32% | 1003.7 hPa | 0 mm | - | - | - |
| 1777717619 | 20° C | 31% | 1004.1 hPa | 0 mm | - | - | - |
| 1777716419 | 19.44° C | 32% | 1004.3 hPa | 0 mm | - | - | - |
| 1777715219 | 19.44° C | 32% | 1004.7 hPa | 0 mm | - | - | - |
* Rain latest hour (hover to see other rain measurements)
** Current wind speed in m/s (hover to see current wind gust speed)